createdAt,value
2023-05-05T00:00:34.682Z,101063.17
2023-05-05T00:03:19.261Z,101058.09
2023-05-05T00:05:52.074Z,101064.39
2023-05-05T00:08:24.598Z,101068.42
2023-05-05T00:10:57.691Z,101068.87
2023-05-05T00:13:29.735Z,101070.50
2023-05-05T00:16:01.540Z,101066.60
2023-05-05T00:18:33.870Z,101065.27
2023-05-05T00:21:05.825Z,101069.36
2023-05-05T00:23:37.536Z,101064.95
2023-05-05T00:26:09.335Z,101063.95
2023-05-05T00:28:41.174Z,101061.01
2023-05-05T00:31:12.967Z,101061.60
2023-05-05T00:33:45.089Z,101064.66
2023-05-05T00:36:17.320Z,101063.08
2023-05-05T00:38:49.063Z,101061.68
2023-05-05T00:41:20.810Z,101068.48
2023-05-05T00:43:52.701Z,101068.59
2023-05-05T00:46:27.672Z,101066.65
2023-05-05T00:49:00.685Z,101056.52
2023-05-05T00:51:32.784Z,101055.46
2023-05-05T00:54:06.427Z,101061.66
2023-05-05T00:56:38.434Z,101059.11
2023-05-05T00:59:10.194Z,101052.27
2023-05-05T01:01:42.165Z,101054.43
2023-05-05T01:04:13.971Z,101053.90
2023-05-05T01:06:55.305Z,101049.60
2023-05-05T01:09:40.032Z,101050.98
2023-05-05T01:12:22.773Z,101050.04
2023-05-05T01:15:02.392Z,101045.25
2023-05-05T01:17:41.826Z,101050.59
2023-05-05T01:20:22.639Z,101047.48
2023-05-05T01:23:00.530Z,101048.38
2023-05-05T01:26:08.738Z,101051.25
2023-05-05T01:28:59.254Z,101046.20
2023-05-05T01:31:51.687Z,101046.17
2023-05-05T01:34:28.578Z,101045.13
2023-05-05T01:37:11.041Z,101048.20
2023-05-05T01:39:44.634Z,101046.48
2023-05-05T01:42:18.647Z,101047.16
2023-05-05T01:44:53.294Z,101049.79
2023-05-05T01:47:25.894Z,101053.80
2023-05-05T01:49:57.705Z,101053.83
2023-05-05T01:52:31.056Z,101055.02
2023-05-05T01:55:04.305Z,101052.20
2023-05-05T01:57:38.177Z,101048.92
2023-05-05T02:00:13.045Z,101051.05
2023-05-05T02:02:51.604Z,101049.23
2023-05-05T02:05:27.024Z,101051.38
2023-05-05T02:08:01.665Z,101055.57
2023-05-05T02:10:35.318Z,101054.61
2023-05-05T02:13:06.196Z,101058.30
2023-05-05T02:15:40.391Z,101051.80
2023-05-05T02:18:13.255Z,101045.59
2023-05-05T02:20:46.681Z,101052.73
2023-05-05T02:23:18.740Z,101050.17
2023-05-05T02:25:54.631Z,101049.28
2023-05-05T02:28:34.472Z,101047.83
2023-05-05T02:31:09.714Z,101049.48
2023-05-05T02:33:44.092Z,101046.56
2023-05-05T02:36:20.234Z,101046.55
2023-05-05T02:39:00.174Z,101049.40
2023-05-05T02:41:34.250Z,101043.31
2023-05-05T02:44:10.558Z,101045.36
2023-05-05T02:46:43.641Z,101047.42
2023-05-05T02:49:16.005Z,101046.76
2023-05-05T02:51:48.045Z,101050.22
2023-05-05T02:54:25.623Z,101047.09
2023-05-05T02:57:00.500Z,101048.16
2023-05-05T02:59:47.125Z,101053.48
2023-05-05T03:02:25.586Z,101057.66
2023-05-05T03:05:01.803Z,101060.80
2023-05-05T03:07:41.763Z,101065.98
2023-05-05T03:10:17.730Z,101064.48
2023-05-05T03:12:55.947Z,101065.79
2023-05-05T03:15:37.336Z,101066.49
2023-05-05T03:18:12.534Z,101063.43
2023-05-05T03:20:46.588Z,101066.97
2023-05-05T03:23:21.005Z,101065.70
2023-05-05T03:25:53.504Z,101064.80
2023-05-05T03:28:45.994Z,101067.75
2023-05-05T03:31:24.726Z,101063.83
2023-05-05T03:33:59.727Z,101064.13
2023-05-05T03:36:34.303Z,101065.54
2023-05-05T03:39:06.394Z,101058.84
2023-05-05T03:41:38.411Z,101056.64
2023-05-05T03:44:10.681Z,101057.08
2023-05-05T03:46:42.522Z,101055.80
2023-05-05T03:49:16.354Z,101059.58
2023-05-05T03:51:48.422Z,101062.15
2023-05-05T03:54:20.773Z,101062.78
2023-05-05T03:56:52.629Z,101062.99
2023-05-05T03:59:24.505Z,101062.08
2023-05-05T04:01:57.754Z,101058.05
2023-05-05T04:04:29.595Z,101059.92
2023-05-05T04:07:01.653Z,101061.70
2023-05-05T04:09:34.929Z,101063.16
2023-05-05T04:12:07.605Z,101065.09
2023-05-05T04:14:37.989Z,101068.56
2023-05-05T04:17:10.584Z,101067.85
2023-05-05T04:19:41.545Z,101069.73
2023-05-05T04:22:13.634Z,101072.67
2023-05-05T04:24:45.428Z,101074.08
2023-05-05T04:27:17.508Z,101070.81
2023-05-05T04:29:49.713Z,101069.34
2023-05-05T04:32:21.586Z,101075.35
2023-05-05T04:34:54.303Z,101076.09
2023-05-05T04:37:26.990Z,101077.98
2023-05-05T04:39:59.058Z,101075.88
2023-05-05T04:42:31.695Z,101079.06
2023-05-05T04:45:03.526Z,101079.03
2023-05-05T04:47:39.758Z,101080.21
2023-05-05T04:50:13.731Z,101083.48
2023-05-05T04:52:45.564Z,101083.30
2023-05-05T04:55:17.539Z,101082.78
2023-05-05T04:57:49.291Z,101083.10
2023-05-05T05:00:21.808Z,101091.45
2023-05-05T05:02:53.829Z,101096.54
2023-05-05T05:05:26.158Z,101099.46
2023-05-05T05:07:58.269Z,101102.40
2023-05-05T05:10:30.394Z,101103.45
2023-05-05T05:13:02.166Z,101106.38
2023-05-05T05:15:34.119Z,101106.16
2023-05-05T05:18:06.564Z,101109.77
2023-05-05T05:20:38.385Z,101112.69
2023-05-05T05:23:10.791Z,101116.98
2023-05-05T05:25:47.017Z,101119.48
2023-05-05T05:28:19.837Z,101119.26
2023-05-05T05:30:55.220Z,101119.83
2023-05-05T05:33:27.159Z,101117.02
2023-05-05T05:35:59.630Z,101123.78
2023-05-05T05:38:31.817Z,101127.89
2023-05-05T05:41:08.735Z,101134.69
2023-05-05T05:43:41.576Z,101139.13
2023-05-05T05:46:13.813Z,101138.89
2023-05-05T05:48:46.546Z,101137.80
2023-05-05T05:51:18.716Z,101143.33
2023-05-05T05:53:51.874Z,101138.34
2023-05-05T05:56:23.950Z,101135.84
2023-05-05T05:58:56.471Z,101131.25
2023-05-05T06:01:28.385Z,101133.35
2023-05-05T06:04:00.457Z,101131.33
2023-05-05T06:06:32.484Z,101132.30
2023-05-05T06:09:06.000Z,101123.12
2023-05-05T06:11:38.233Z,101131.97
2023-05-05T06:14:10.859Z,101133.30
2023-05-05T06:16:41.877Z,101135.36
2023-05-05T06:19:15.538Z,101138.02
2023-05-05T06:21:46.824Z,101141.41
2023-05-05T06:24:18.799Z,101141.52
2023-05-05T06:26:50.892Z,101141.66
2023-05-05T06:29:22.776Z,101141.19
2023-05-05T06:31:54.643Z,101142.02
2023-05-05T06:34:26.932Z,101146.73
2023-05-05T06:36:58.984Z,101146.48
2023-05-05T06:39:31.325Z,101145.84
2023-05-05T06:42:04.040Z,101147.80
2023-05-05T06:44:36.383Z,101147.27
2023-05-05T06:47:08.786Z,101149.02
2023-05-05T06:49:40.632Z,101148.81
2023-05-05T06:52:12.628Z,101150.95
2023-05-05T06:54:45.950Z,101152.45
2023-05-05T06:57:17.778Z,101149.09
2023-05-05T06:59:49.527Z,101151.98
2023-05-05T07:02:21.377Z,101150.42
2023-05-05T07:04:55.363Z,101145.61
2023-05-05T07:07:27.534Z,101146.54
2023-05-05T07:09:59.387Z,101149.19
2023-05-05T07:12:32.236Z,101154.91
2023-05-05T07:15:12.273Z,101154.14
2023-05-05T07:17:51.349Z,101157.88
2023-05-05T07:20:23.426Z,101154.15
2023-05-05T07:22:55.236Z,101154.79
2023-05-05T07:25:27.189Z,101152.69
2023-05-05T07:27:59.350Z,101148.17
2023-05-05T07:30:31.312Z,101149.14
2023-05-05T07:33:04.734Z,101146.68
2023-05-05T07:35:36.645Z,101148.81
2023-05-05T07:38:10.771Z,101151.38
2023-05-05T07:40:43.182Z,101145.41
2023-05-05T07:43:15.071Z,101145.45
2023-05-05T07:45:47.221Z,101146.21
2023-05-05T07:48:19.091Z,101146.77
2023-05-05T07:50:52.406Z,101152.58
2023-05-05T07:53:24.565Z,101158.84
2023-05-05T07:55:56.982Z,101153.92
2023-05-05T07:58:28.810Z,101157.85
2023-05-05T08:01:01.321Z,101162.19
2023-05-05T08:03:33.332Z,101170.08
2023-05-05T08:06:09.840Z,101167.75
2023-05-05T08:08:41.997Z,101170.03
2023-05-05T08:11:13.797Z,101171.16
2023-05-05T08:13:45.820Z,101173.78
2023-05-05T08:16:18.904Z,101177.98
2023-05-05T08:18:51.179Z,101184.84
2023-05-05T08:21:23.486Z,101184.38
2023-05-05T08:23:55.316Z,101181.84
2023-05-05T08:26:27.191Z,101187.88
2023-05-05T08:29:00.818Z,101187.14
2023-05-05T08:31:36.772Z,101184.63
2023-05-05T08:34:08.582Z,101185.34
2023-05-05T08:36:40.479Z,101185.88
2023-05-05T08:39:12.382Z,101188.11
2023-05-05T08:41:44.497Z,101186.83
2023-05-05T08:44:16.296Z,101183.73
2023-05-05T08:46:49.999Z,101190.79
2023-05-05T08:49:22.976Z,101188.73
2023-05-05T08:51:55.143Z,101187.08
2023-05-05T08:54:31.900Z,101184.44
2023-05-05T08:57:09.099Z,101186.42
2023-05-05T08:59:42.036Z,101184.04
2023-05-05T09:02:15.479Z,101182.88
2023-05-05T09:04:47.350Z,101182.52
2023-05-05T09:07:19.703Z,101179.66
2023-05-05T09:09:51.935Z,101184.11
2023-05-05T09:12:24.281Z,101181.67
2023-05-05T09:14:57.894Z,101182.54
2023-05-05T09:17:33.487Z,101183.36
2023-05-05T09:20:07.683Z,101182.29
2023-05-05T09:22:41.403Z,101188.94
2023-05-05T09:25:15.061Z,101182.33
2023-05-05T09:27:48.484Z,101182.62
2023-05-05T09:30:27.012Z,101179.52
2023-05-05T09:32:58.985Z,101178.55
2023-05-05T09:35:48.227Z,101181.32
2023-05-05T09:38:20.564Z,101184.39
2023-05-05T09:40:54.323Z,101181.75
2023-05-05T09:43:26.630Z,101185.64
2023-05-05T09:46:08.550Z,101187.15
2023-05-05T09:48:40.457Z,101182.91
2023-05-05T09:51:12.258Z,101188.41
2023-05-05T09:53:45.044Z,101189.04
2023-05-05T09:56:16.749Z,101196.38
2023-05-05T09:58:48.674Z,101195.09
2023-05-05T10:01:25.965Z,101199.94
2023-05-05T10:03:57.732Z,101202.89
2023-05-05T10:06:44.341Z,101202.23
2023-05-05T10:09:16.249Z,101201.90
2023-05-05T10:11:57.022Z,101202.19
2023-05-05T10:14:32.844Z,101198.02
2023-05-05T10:17:07.076Z,101195.36
2023-05-05T10:19:40.400Z,101197.70
2023-05-05T10:22:12.664Z,101197.00
2023-05-05T10:24:48.574Z,101192.13
2023-05-05T10:27:24.129Z,101195.35
2023-05-05T10:30:04.530Z,101192.37
2023-05-05T10:35:24.528Z,101183.96
2023-05-05T10:37:57.678Z,101182.39
2023-05-05T10:40:31.620Z,101174.36
2023-05-05T10:43:03.615Z,101177.90
2023-05-05T10:45:35.754Z,101178.56
2023-05-05T10:48:15.673Z,101175.53
2023-05-05T10:50:54.440Z,101176.84
2023-05-05T10:53:30.002Z,101173.73
2023-05-05T10:56:10.475Z,101169.23
2023-05-05T10:58:55.453Z,101159.65
2023-05-05T11:01:35.447Z,101151.66
2023-05-05T11:04:21.623Z,101149.59
2023-05-05T11:07:27.417Z,101147.34
2023-05-05T11:10:01.645Z,101146.55
2023-05-05T11:12:47.496Z,101141.48
2023-05-05T11:15:38.744Z,101136.79
2023-05-05T11:18:28.791Z,101133.42
2023-05-05T11:21:21.113Z,101138.05
2023-05-05T11:23:54.142Z,101133.08
2023-05-05T11:26:52.353Z,101130.37
2023-05-05T11:29:26.238Z,101131.39
2023-05-05T11:32:15.674Z,101132.14
2023-05-05T11:34:53.778Z,101135.91
2023-05-05T11:37:28.141Z,101127.17
2023-05-05T11:40:14.611Z,101129.54
2023-05-05T11:42:46.836Z,101121.08
2023-05-05T11:45:25.777Z,101127.30
2023-05-05T11:48:27.887Z,101124.49
2023-05-05T11:51:03.633Z,101122.15
2023-05-05T11:53:36.764Z,101121.66
2023-05-05T11:56:12.648Z,101125.91
2023-05-05T11:58:45.244Z,101124.63
2023-05-05T12:01:17.523Z,101124.48
2023-05-05T12:03:49.531Z,101125.90
2023-05-05T12:06:21.589Z,101128.42
2023-05-05T12:08:53.836Z,101131.94
2023-05-05T12:11:25.857Z,101133.29
2023-05-05T12:14:11.435Z,101128.34
2023-05-05T12:16:54.567Z,101126.02
2023-05-05T12:19:30.113Z,101125.50
2023-05-05T12:22:02.432Z,101129.46
2023-05-05T12:24:34.450Z,101133.64
2023-05-05T12:27:12.140Z,101131.30
2023-05-05T12:29:44.028Z,101130.27
2023-05-05T12:32:24.258Z,101127.34
2023-05-05T12:34:57.365Z,101124.61
2023-05-05T12:37:29.754Z,101123.45
2023-05-05T12:40:01.632Z,101122.23
2023-05-05T12:42:38.646Z,101124.23
2023-05-05T12:45:19.024Z,101127.48
2023-05-05T12:47:50.854Z,101122.29
2023-05-05T12:50:33.341Z,101121.36
2023-05-05T12:53:05.559Z,101123.23
2023-05-05T12:55:41.278Z,101123.44
2023-05-05T12:58:13.429Z,101118.46
2023-05-05T13:00:48.142Z,101115.23
2023-05-05T13:03:23.717Z,101120.08
2023-05-05T13:05:55.638Z,101117.98
2023-05-05T13:08:44.588Z,101113.08
2023-05-05T13:11:16.570Z,101101.75
2023-05-05T13:13:48.335Z,101106.52
2023-05-05T13:16:20.201Z,101110.50
2023-05-05T13:18:53.612Z,101110.02
2023-05-05T13:21:25.322Z,101103.45
2023-05-05T13:24:08.305Z,101097.25
2023-05-05T13:26:49.565Z,101097.59
2023-05-05T13:29:21.505Z,101099.95
2023-05-05T13:31:53.206Z,101094.05
2023-05-05T13:34:24.942Z,101095.14
2023-05-05T13:36:56.994Z,101089.48
2023-05-05T13:39:28.788Z,101089.73
2023-05-05T13:42:00.608Z,101085.20
2023-05-05T13:44:33.112Z,101082.58
2023-05-05T13:47:05.653Z,101085.50
2023-05-05T13:49:37.676Z,101085.16
2023-05-05T13:52:09.476Z,101083.03
2023-05-05T13:54:41.988Z,101078.80
2023-05-05T13:57:12.308Z,101076.20
2023-05-05T13:59:44.792Z,101061.63
2023-05-05T14:02:16.541Z,101061.42
2023-05-05T14:04:48.404Z,101062.42
2023-05-05T14:07:21.385Z,101063.83
2023-05-05T14:09:53.160Z,101063.14
2023-05-05T14:12:24.923Z,101059.92
2023-05-05T14:14:56.912Z,101057.59
2023-05-05T14:17:29.006Z,101058.47
2023-05-05T14:20:01.268Z,101058.52
2023-05-05T14:22:34.197Z,101060.09
2023-05-05T14:25:07.340Z,101055.85
2023-05-05T14:27:39.676Z,101056.82
2023-05-05T14:30:12.937Z,101052.00
2023-05-05T14:32:44.838Z,101052.20
2023-05-05T14:35:16.676Z,101052.36
2023-05-05T14:37:48.431Z,101047.02
2023-05-05T14:40:20.431Z,101049.02
2023-05-05T14:42:52.159Z,101054.69
2023-05-05T14:45:23.993Z,101051.98
2023-05-05T14:47:56.172Z,101049.23
2023-05-05T14:50:27.977Z,101048.73
2023-05-05T14:52:59.682Z,101046.02
2023-05-05T14:55:31.552Z,101044.57
2023-05-05T14:58:03.218Z,101043.52
2023-05-05T15:00:34.949Z,101049.27
2023-05-05T15:03:06.942Z,101050.80
2023-05-05T15:05:38.798Z,101052.26
2023-05-05T15:08:10.597Z,101051.15
2023-05-05T15:10:42.347Z,101049.23
2023-05-05T15:13:14.584Z,101048.64
2023-05-05T15:15:46.511Z,101046.89
2023-05-05T15:18:18.378Z,101045.47
2023-05-05T15:20:50.275Z,101042.84
2023-05-05T15:23:23.077Z,101041.85
2023-05-05T15:25:53.366Z,101028.63
2023-05-05T15:28:25.528Z,101037.74
2023-05-05T15:30:57.582Z,101041.03
2023-05-05T15:33:30.251Z,101043.92
2023-05-05T15:36:02.372Z,101038.64
2023-05-05T15:38:34.389Z,101043.88
2023-05-05T15:41:09.035Z,101049.76
2023-05-05T15:43:41.285Z,101054.29
2023-05-05T15:46:13.613Z,101052.52
2023-05-05T15:48:45.646Z,101050.16
2023-05-05T15:51:18.807Z,101052.39
2023-05-05T15:53:52.245Z,101046.71
2023-05-05T15:56:27.481Z,101049.71
2023-05-05T15:59:03.245Z,101048.06
2023-05-05T16:01:36.381Z,101048.35
2023-05-05T16:04:09.049Z,101041.03
2023-05-05T16:06:41.162Z,101038.33
2023-05-05T16:09:13.660Z,101041.73
2023-05-05T16:11:45.849Z,101034.79
2023-05-05T16:14:17.537Z,101032.24
2023-05-05T16:16:49.484Z,101032.39
2023-05-05T16:19:23.884Z,101032.20
2023-05-05T16:21:56.449Z,101031.93
2023-05-05T16:24:27.044Z,101030.73
2023-05-05T16:26:58.928Z,101025.61
2023-05-05T16:29:31.523Z,101024.51
2023-05-05T16:32:04.801Z,101025.04
2023-05-05T16:34:36.715Z,101016.99
2023-05-05T16:37:09.005Z,101015.23
2023-05-05T16:39:41.497Z,101015.61
2023-05-05T16:42:13.778Z,101018.64
2023-05-05T16:44:45.998Z,101014.09
2023-05-05T16:47:18.935Z,101014.77
2023-05-05T16:49:52.554Z,101016.53
2023-05-05T16:52:24.653Z,101019.24
2023-05-05T16:54:56.740Z,101018.68
2023-05-05T16:57:28.775Z,101016.75
2023-05-05T17:00:00.946Z,101016.86
2023-05-05T17:02:33.236Z,101017.29
2023-05-05T17:05:05.765Z,101010.77
2023-05-05T17:07:37.588Z,101011.70
2023-05-05T17:10:11.719Z,101016.42
2023-05-05T17:12:43.614Z,101015.25
2023-05-05T17:15:15.996Z,101012.65
2023-05-05T17:17:48.779Z,101015.17
2023-05-05T17:20:20.709Z,101019.75
2023-05-05T17:22:52.948Z,101019.81
2023-05-05T17:25:26.189Z,101022.65
2023-05-05T17:27:58.414Z,101025.86
2023-05-05T17:30:30.214Z,101023.89
2023-05-05T17:33:01.937Z,101023.48
2023-05-05T17:35:34.102Z,101025.38
2023-05-05T17:38:05.846Z,101027.96
2023-05-05T17:40:37.507Z,101031.33
2023-05-05T17:43:09.276Z,101032.14
2023-05-05T17:45:42.324Z,101036.70
2023-05-05T17:48:14.163Z,101039.17
2023-05-05T17:50:47.794Z,101041.15
2023-05-05T17:53:19.782Z,101042.68
2023-05-05T17:55:51.507Z,101046.67
2023-05-05T17:58:23.190Z,101045.00
2023-05-05T18:00:54.925Z,101038.34
2023-05-05T18:03:26.911Z,101034.99
2023-05-05T18:05:58.733Z,101037.80
2023-05-05T18:08:30.812Z,101038.06
2023-05-05T18:11:02.800Z,101039.58
2023-05-05T18:13:34.753Z,101041.80
2023-05-05T18:16:07.119Z,101039.86
2023-05-05T18:18:40.587Z,101042.92
2023-05-05T18:21:13.000Z,101041.36
2023-05-05T18:23:44.723Z,101047.96
2023-05-05T18:26:17.392Z,101043.10
2023-05-05T18:28:49.121Z,101046.06
2023-05-05T18:31:21.809Z,101048.65
2023-05-05T18:33:53.706Z,101048.05
2023-05-05T18:36:27.620Z,101051.95
2023-05-05T18:39:00.133Z,101055.81
2023-05-05T18:41:32.345Z,101050.13
2023-05-05T18:44:04.155Z,101050.80
2023-05-05T18:46:36.125Z,101045.83
2023-05-05T18:49:08.369Z,101050.67
2023-05-05T18:51:40.204Z,101048.53
2023-05-05T18:54:12.113Z,101045.70
2023-05-05T18:56:44.007Z,101044.42
2023-05-05T18:59:15.833Z,101040.95
2023-05-05T19:01:47.541Z,101036.98
2023-05-05T19:04:30.860Z,101041.54
2023-05-05T19:07:03.591Z,101046.29
2023-05-05T19:09:36.057Z,101046.92
2023-05-05T19:12:08.411Z,101046.92
2023-05-05T19:14:40.455Z,101050.39
2023-05-05T19:17:12.208Z,101042.08
2023-05-05T19:19:44.106Z,101044.38
2023-05-05T19:22:17.192Z,101049.52
2023-05-05T19:24:49.315Z,101045.13
2023-05-05T19:27:22.129Z,101044.65
2023-05-05T19:29:52.619Z,101048.34
2023-05-05T19:32:24.864Z,101046.67
2023-05-05T19:34:56.971Z,101046.80
2023-05-05T19:37:29.132Z,101043.47
2023-05-05T19:40:00.949Z,101040.12
2023-05-05T19:42:32.692Z,101039.08
2023-05-05T19:45:05.615Z,101041.63
2023-05-05T19:47:37.509Z,101039.14
2023-05-05T19:50:11.120Z,101036.73
2023-05-05T19:52:43.059Z,101041.94
2023-05-05T19:55:14.771Z,101048.02
2023-05-05T19:57:46.601Z,101049.02
2023-05-05T20:00:19.853Z,101047.55
2023-05-05T20:02:51.885Z,101045.54
2023-05-05T20:05:23.995Z,101043.11
2023-05-05T20:07:55.755Z,101041.41
2023-05-05T20:10:27.683Z,101042.77
2023-05-05T20:12:59.856Z,101045.44
2023-05-05T20:15:32.724Z,101046.84
2023-05-05T20:18:05.426Z,101043.08
2023-05-05T20:20:37.206Z,101039.14
2023-05-05T20:23:09.120Z,101043.50
2023-05-05T20:25:41.303Z,101042.30
2023-05-05T20:28:12.989Z,101045.77
2023-05-05T20:30:44.694Z,101042.38
2023-05-05T20:33:16.593Z,101038.83
2023-05-05T20:35:48.365Z,101042.02
2023-05-05T20:38:20.100Z,101038.00
2023-05-05T20:40:52.047Z,101036.08
2023-05-05T20:43:24.020Z,101032.09
2023-05-05T20:45:55.966Z,101033.34
2023-05-05T20:48:27.683Z,101037.59
2023-05-05T20:50:59.869Z,101039.76
2023-05-05T20:53:31.740Z,101036.77
2023-05-05T20:56:03.838Z,101038.05
2023-05-05T20:58:36.589Z,101039.96
2023-05-05T21:01:08.271Z,101039.50
2023-05-05T21:03:40.071Z,101038.80
2023-05-05T21:06:11.967Z,101038.25
2023-05-05T21:08:44.092Z,101041.53
2023-05-05T21:11:15.798Z,101033.77
2023-05-05T21:13:47.552Z,101036.48
2023-05-05T21:16:19.292Z,101036.30
2023-05-05T21:18:51.001Z,101032.73
2023-05-05T21:21:23.744Z,101032.67
2023-05-05T21:23:55.820Z,101029.27
2023-05-05T21:26:27.818Z,101024.92
2023-05-05T21:28:59.593Z,101016.21
2023-05-05T21:31:31.554Z,101012.20
2023-05-05T21:34:02.546Z,101008.55
2023-05-05T21:36:34.654Z,101010.62
2023-05-05T21:39:06.633Z,101004.91
2023-05-05T21:41:38.837Z,101003.88
2023-05-05T21:44:10.684Z,100999.09
2023-05-05T21:46:42.664Z,100999.27
2023-05-05T21:49:18.715Z,100995.57
2023-05-05T21:51:51.109Z,100992.60
2023-05-05T21:54:22.940Z,100992.30
2023-05-05T21:56:54.790Z,100987.52
2023-05-05T21:59:26.553Z,100990.67
2023-05-05T22:01:58.387Z,100988.25
2023-05-05T22:04:30.246Z,100988.67
2023-05-05T22:07:02.089Z,100989.20
2023-05-05T22:09:33.943Z,100997.73
2023-05-05T22:12:06.156Z,100991.34
2023-05-05T22:14:38.112Z,100992.97
2023-05-05T22:17:09.871Z,100993.29
2023-05-05T22:19:41.728Z,100987.77
2023-05-05T22:22:13.485Z,100988.27
2023-05-05T22:24:45.256Z,100986.51
2023-05-05T22:27:16.917Z,100981.94
2023-05-05T22:29:48.617Z,100976.60
2023-05-05T22:32:21.137Z,100977.42
2023-05-05T22:34:52.972Z,100975.76
2023-05-05T22:37:25.015Z,100977.16
2023-05-05T22:39:56.661Z,100971.80
2023-05-05T22:42:29.630Z,100973.79
2023-05-05T22:45:01.319Z,100971.64
2023-05-05T22:47:33.162Z,100974.10
2023-05-05T22:50:05.139Z,100971.33
2023-05-05T22:52:36.869Z,100966.25
2023-05-05T22:55:09.842Z,100960.27
2023-05-05T22:57:42.248Z,100962.20
2023-05-05T23:00:14.662Z,100963.92
2023-05-05T23:02:46.489Z,100963.77
2023-05-05T23:05:18.408Z,100964.60
2023-05-05T23:07:50.178Z,100959.72
2023-05-05T23:10:22.070Z,100957.66
2023-05-05T23:12:54.232Z,100961.13
2023-05-05T23:15:25.971Z,100963.19
2023-05-05T23:17:58.223Z,100959.34
2023-05-05T23:20:30.041Z,100959.52
2023-05-05T23:23:01.932Z,100955.88
2023-05-05T23:25:33.830Z,100959.41
2023-05-05T23:28:05.997Z,100950.36
2023-05-05T23:30:38.171Z,100945.91
2023-05-05T23:33:10.287Z,100948.70
2023-05-05T23:35:43.504Z,100946.66
2023-05-05T23:38:16.130Z,100950.98
2023-05-05T23:40:47.788Z,100949.65
2023-05-05T23:43:19.559Z,100951.54
2023-05-05T23:45:51.593Z,100941.15
2023-05-05T23:48:23.440Z,100940.33
2023-05-05T23:50:55.920Z,100934.85
2023-05-05T23:53:27.620Z,100935.27
2023-05-05T23:55:59.827Z,100932.31
2023-05-05T23:58:31.554Z,100928.77
